createdAt,value
2019-04-03T00:00:46.400Z,101552.89
2019-04-03T00:03:17.011Z,101557.59
2019-04-03T00:05:48.053Z,101554.98
2019-04-03T00:08:19.705Z,101553.62
2019-04-03T00:10:50.926Z,101550.88
2019-04-03T00:13:22.571Z,101554.53
2019-04-03T00:15:52.922Z,101545.84
2019-04-03T00:18:25.605Z,101540.55
2019-04-03T00:20:58.484Z,101545.11
2019-04-03T00:23:31.694Z,101548.40
2019-04-03T00:26:02.001Z,101547.62
2019-04-03T00:28:33.040Z,101550.22
2019-04-03T00:31:03.468Z,101543.06
2019-04-03T00:33:34.500Z,101543.81
2019-04-03T00:36:06.062Z,101545.09
2019-04-03T00:38:37.094Z,101543.16
2019-04-03T00:41:08.008Z,101540.34
2019-04-03T00:43:38.460Z,101536.88
2019-04-03T00:46:10.415Z,101537.73
2019-04-03T00:48:41.347Z,101543.72
2019-04-03T00:51:12.600Z,101546.00
2019-04-03T00:53:42.838Z,101544.86
2019-04-03T00:56:13.719Z,101546.36
2019-04-03T00:58:46.117Z,101544.37
2019-04-03T01:01:20.011Z,101543.04
2019-04-03T01:03:51.322Z,101547.61
2019-04-03T01:06:21.820Z,101550.34
2019-04-03T01:08:54.374Z,101551.11
2019-04-03T01:11:25.628Z,101553.62
2019-04-03T01:13:56.163Z,101549.75
2019-04-03T01:16:27.497Z,101554.58
2019-04-03T01:18:59.873Z,101552.98
2019-04-03T01:21:30.199Z,101563.70
2019-04-03T01:24:01.024Z,101567.81
2019-04-03T01:26:31.396Z,101561.97
2019-04-03T01:29:02.386Z,101573.31
2019-04-03T01:31:34.453Z,101569.72
2019-04-03T01:34:07.637Z,101567.86
2019-04-03T01:36:39.192Z,101561.28
2019-04-03T01:39:12.688Z,101560.42
2019-04-03T01:41:44.241Z,101562.65
2019-04-03T01:44:15.084Z,101558.81
2019-04-03T01:46:48.782Z,101554.48
2019-04-03T01:49:20.123Z,101562.19
2019-04-03T01:51:54.239Z,101563.66
2019-04-03T01:54:25.278Z,101557.58
2019-04-03T01:56:57.092Z,101559.35
2019-04-03T01:59:28.493Z,101558.22
2019-04-03T02:02:00.952Z,101554.48
2019-04-03T02:04:32.282Z,101557.12
2019-04-03T02:07:03.180Z,101561.86
2019-04-03T02:09:34.682Z,101555.02
2019-04-03T02:12:04.885Z,101558.75
2019-04-03T02:14:36.046Z,101564.48
2019-04-03T02:17:08.209Z,101558.78
2019-04-03T02:19:39.326Z,101561.41
2019-04-03T02:22:13.284Z,101566.25
2019-04-03T02:24:43.995Z,101555.22
2019-04-03T02:27:14.623Z,101554.45
2019-04-03T02:29:45.109Z,101555.69
2019-04-03T02:32:18.347Z,101561.28
2019-04-03T02:34:49.075Z,101563.52
2019-04-03T02:37:19.735Z,101564.91
2019-04-03T02:39:50.950Z,101561.41
2019-04-03T02:42:21.140Z,101558.20
2019-04-03T02:44:51.932Z,101551.01
2019-04-03T02:47:22.856Z,101548.64
2019-04-03T02:49:55.922Z,101550.63
2019-04-03T02:52:27.606Z,101550.63
2019-04-03T02:54:59.438Z,101547.27
2019-04-03T02:57:31.094Z,101551.03
2019-04-03T03:00:02.340Z,101554.27
2019-04-03T03:02:33.091Z,101550.53
2019-04-03T03:05:05.156Z,101549.16
2019-04-03T03:07:37.396Z,101554.99
2019-04-03T03:10:08.364Z,101553.73
2019-04-03T03:12:39.104Z,101547.03
2019-04-03T03:15:12.328Z,101552.37
2019-04-03T03:17:44.082Z,101554.73
2019-04-03T03:20:15.416Z,101563.33
2019-04-03T03:22:49.845Z,101556.86
2019-04-03T03:25:19.446Z,101557.98
2019-04-03T03:27:49.867Z,101556.84
2019-04-03T03:30:45.359Z,101560.44
2019-04-03T03:33:19.417Z,101553.61
2019-04-03T03:35:34.665Z,101555.47
2019-04-03T03:38:00.650Z,101548.37
2019-04-03T03:40:31.442Z,101555.08
2019-04-03T03:43:05.165Z,101553.95
2019-04-03T03:45:34.157Z,101557.55
2019-04-03T03:48:08.197Z,101563.25
2019-04-03T03:50:38.171Z,101561.89
2019-04-03T03:53:11.508Z,101565.59
2019-04-03T03:55:41.483Z,101557.75
2019-04-03T03:58:14.152Z,101562.95
2019-04-03T04:00:48.722Z,101558.02
2019-04-03T04:03:19.620Z,101560.39
2019-04-03T04:05:53.734Z,101558.36
2019-04-03T04:08:24.463Z,101563.55
2019-04-03T04:10:58.174Z,101563.83
2019-04-03T04:13:28.727Z,101561.82
2019-04-03T04:16:02.825Z,101565.55
2019-04-03T04:18:32.724Z,101561.09
2019-04-03T04:21:03.697Z,101568.66
2019-04-03T04:23:35.732Z,101571.59
2019-04-03T04:26:05.932Z,101569.67
2019-04-03T04:28:39.213Z,101565.93
2019-04-03T04:31:12.978Z,101566.20
2019-04-03T04:33:43.267Z,101568.30
2019-04-03T04:36:14.090Z,101569.63
2019-04-03T04:38:46.065Z,101565.75
2019-04-03T04:41:16.778Z,101567.06
2019-04-03T04:43:47.573Z,101563.98
2019-04-03T04:46:19.260Z,101570.86
2019-04-03T04:48:51.740Z,101566.75
2019-04-03T04:51:25.369Z,101559.38
2019-04-03T04:53:55.973Z,101564.64
2019-04-03T04:56:26.602Z,101564.78
2019-04-03T04:58:57.565Z,101564.49
2019-04-03T05:01:30.631Z,101565.04
2019-04-03T05:04:01.045Z,101565.48
2019-04-03T05:06:32.296Z,101558.38
2019-04-03T05:09:04.563Z,101564.36
2019-04-03T05:11:39.416Z,101558.41
2019-04-03T05:14:09.958Z,101558.95
2019-04-03T05:16:41.364Z,101553.17
2019-04-03T05:19:17.906Z,101554.20
2019-04-03T05:21:44.573Z,101549.17
2019-04-03T05:24:16.612Z,101548.38
2019-04-03T05:26:47.364Z,101551.05
2019-04-03T05:29:18.715Z,101544.25
2019-04-03T05:31:50.757Z,101546.67
2019-04-03T05:34:21.310Z,101544.57
2019-04-03T05:36:51.831Z,101546.25
2019-04-03T05:39:24.706Z,101545.55
2019-04-03T05:41:58.360Z,101547.44
2019-04-03T05:44:28.575Z,101543.56
2019-04-03T05:46:59.885Z,101541.73
2019-04-03T05:49:30.652Z,101545.73
2019-04-03T05:52:04.082Z,101538.08
2019-04-03T05:54:35.150Z,101538.44
2019-04-03T05:57:05.635Z,101533.06
2019-04-03T05:59:36.413Z,101539.20
2019-04-03T06:02:14.709Z,101544.60
2019-04-03T06:04:41.855Z,101545.20
2019-04-03T06:07:13.539Z,101539.02
2019-04-03T06:09:45.786Z,101548.73
2019-04-03T06:12:18.813Z,101549.33
2019-04-03T06:14:50.250Z,101542.95
2019-04-03T06:17:22.619Z,101548.23
2019-04-03T06:19:53.431Z,101543.06
2019-04-03T06:22:24.856Z,101540.84
2019-04-03T06:24:57.044Z,101537.18
2019-04-03T06:27:29.207Z,101536.52
2019-04-03T06:30:00.890Z,101541.59
2019-04-03T06:32:32.719Z,101539.16
2019-04-03T06:35:04.164Z,101539.19
2019-04-03T06:37:35.310Z,101538.02
2019-04-03T06:40:12.150Z,101541.93
2019-04-03T06:42:44.876Z,101535.07
2019-04-03T06:45:15.765Z,101543.36
2019-04-03T06:47:46.964Z,101544.56
2019-04-03T06:50:17.966Z,101535.11
2019-04-03T06:52:48.921Z,101529.76
2019-04-03T06:55:19.412Z,101537.56
2019-04-03T06:57:50.183Z,101534.97
2019-04-03T07:00:20.712Z,101533.11
2019-04-03T07:02:53.301Z,101532.41
2019-04-03T07:05:27.273Z,101535.86
2019-04-03T07:07:57.610Z,101529.98
2019-04-03T07:10:32.031Z,101532.74
2019-04-03T07:13:02.869Z,101527.75
2019-04-03T07:15:34.676Z,101534.15
2019-04-03T07:18:06.502Z,101524.48
2019-04-03T07:20:38.234Z,101535.89
2019-04-03T07:23:08.480Z,101529.93
2019-04-03T07:25:40.005Z,101525.05
2019-04-03T07:28:11.623Z,101524.33
2019-04-03T07:30:43.320Z,101518.31
2019-04-03T07:33:16.106Z,101511.48
2019-04-03T07:35:47.955Z,101523.97
2019-04-03T07:38:18.179Z,101522.16
2019-04-03T07:40:52.019Z,101523.64
2019-04-03T07:43:26.937Z,101513.37
2019-04-03T07:45:59.334Z,101517.84
2019-04-03T07:48:33.057Z,101517.69
2019-04-03T07:51:01.956Z,101498.63
2019-04-03T07:53:36.062Z,101506.94
2019-04-03T07:56:06.592Z,101501.37
2019-04-03T07:58:37.448Z,101501.48
2019-04-03T08:01:10.875Z,101501.26
2019-04-03T08:03:41.922Z,101511.89
2019-04-03T08:06:14.968Z,101507.05
2019-04-03T08:08:45.600Z,101495.42
2019-04-03T08:11:16.136Z,101501.73
2019-04-03T08:13:46.782Z,101497.63
2019-04-03T08:16:18.830Z,101489.92
2019-04-03T08:18:52.058Z,101485.71
2019-04-03T08:21:24.020Z,101481.66
2019-04-03T08:23:54.401Z,101482.55
2019-04-03T08:26:26.689Z,101475.56
2019-04-03T08:29:00.691Z,101477.94
2019-04-03T08:31:29.573Z,101472.74
2019-04-03T08:34:14.279Z,101465.28
2019-04-03T08:36:34.032Z,101454.44
2019-04-03T08:39:05.913Z,101452.02
2019-04-03T08:41:37.962Z,101451.00
2019-04-03T08:44:09.189Z,101448.44
2019-04-03T08:46:43.806Z,101458.04
2019-04-03T08:49:14.320Z,101451.79
2019-04-03T08:51:45.490Z,101448.62
2019-04-03T08:54:16.706Z,101439.22
2019-04-03T08:56:48.747Z,101451.27
2019-04-03T08:59:20.418Z,101446.34
2019-04-03T09:01:54.914Z,101445.29
2019-04-03T09:04:25.718Z,101450.76
2019-04-03T09:06:58.682Z,101441.34
2019-04-03T09:09:30.439Z,101450.73
2019-04-03T09:12:01.559Z,101445.92
2019-04-03T09:14:31.883Z,101440.55
2019-04-03T09:17:03.526Z,101442.72
2019-04-03T09:19:35.805Z,101441.47
2019-04-03T09:22:06.365Z,101432.14
2019-04-03T09:24:37.522Z,101439.42
2019-04-03T09:27:09.326Z,101431.10
2019-04-03T09:29:40.172Z,101428.52
2019-04-03T09:32:12.204Z,101429.50
2019-04-03T09:34:43.927Z,101434.69
2019-04-03T09:37:17.638Z,101432.17
2019-04-03T09:39:48.419Z,101438.89
2019-04-03T09:42:19.606Z,101440.54
2019-04-03T09:44:51.902Z,101438.03
2019-04-03T09:47:22.850Z,101444.17
2019-04-03T09:49:53.706Z,101433.72
2019-04-03T09:52:37.417Z,101432.45
2019-04-03T09:55:00.706Z,101434.52
2019-04-03T09:57:32.495Z,101438.95
2019-04-03T10:00:02.786Z,101439.06
2019-04-03T10:02:34.823Z,101430.64
2019-04-03T10:05:07.524Z,101422.62
2019-04-03T10:07:39.240Z,101416.48
2019-04-03T10:10:09.602Z,101430.70
2019-04-03T10:12:44.706Z,101436.91
2019-04-03T10:15:17.654Z,101427.20
2019-04-03T10:17:48.147Z,101423.81
2019-04-03T10:20:20.170Z,101428.62
2019-04-03T10:22:54.299Z,101418.09
2019-04-03T10:25:26.424Z,101407.42
2019-04-03T10:27:57.430Z,101414.09
2019-04-03T10:30:29.163Z,101403.94
2019-04-03T10:33:00.143Z,101396.91
2019-04-03T10:35:31.722Z,101404.83
2019-04-03T10:38:03.179Z,101398.80
2019-04-03T10:40:34.877Z,101394.38
2019-04-03T10:43:07.343Z,101399.53
2019-04-03T10:45:39.110Z,101390.78
2019-04-03T10:48:12.403Z,101403.98
2019-04-03T10:50:43.043Z,101397.50
2019-04-03T10:53:15.552Z,101392.39
2019-04-03T10:55:48.457Z,101387.80
2019-04-03T10:58:20.172Z,101383.05
2019-04-03T11:00:52.662Z,101377.06
2019-04-03T11:03:26.082Z,101373.08
2019-04-03T11:05:58.911Z,101370.02
2019-04-03T11:08:29.323Z,101371.32
2019-04-03T11:11:04.490Z,101355.66
2019-04-03T11:13:35.202Z,101371.53
2019-04-03T11:16:06.437Z,101366.53
2019-04-03T11:18:39.228Z,101364.09
2019-04-03T11:21:14.358Z,101363.88
2019-04-03T11:23:45.949Z,101351.81
2019-04-03T11:26:19.608Z,101317.27
2019-04-03T11:28:59.736Z,101346.52
2019-04-03T11:31:33.572Z,101346.84
2019-04-03T11:34:02.763Z,101354.86
2019-04-03T11:36:36.056Z,101349.73
2019-04-03T11:39:15.074Z,101338.89
2019-04-03T11:41:43.053Z,101340.14
2019-04-03T11:44:17.066Z,101324.80
2019-04-03T11:46:49.142Z,101317.65
2019-04-03T11:49:21.025Z,101313.42
2019-04-03T11:51:52.917Z,101327.08
2019-04-03T11:54:26.043Z,101325.13
2019-04-03T11:56:57.238Z,101331.98
2019-04-03T11:59:29.196Z,101315.62
2019-04-03T12:02:01.317Z,101317.59
2019-04-03T12:04:33.392Z,101304.45
2019-04-03T12:07:04.507Z,101299.62
2019-04-03T12:09:35.847Z,101302.84
2019-04-03T12:12:09.449Z,101297.41
2019-04-03T12:14:39.370Z,101291.92
2019-04-03T12:17:10.139Z,101301.13
2019-04-03T12:19:40.466Z,101294.45
2019-04-03T12:22:11.411Z,101287.84
2019-04-03T12:24:42.139Z,101292.72
2019-04-03T12:27:14.644Z,101297.56
2019-04-03T12:29:46.430Z,101294.33
2019-04-03T12:32:17.215Z,101301.08
2019-04-03T12:34:49.754Z,101297.05
2019-04-03T12:37:24.985Z,101309.44
2019-04-03T12:39:56.243Z,101305.91
2019-04-03T12:42:27.960Z,101310.83
2019-04-03T12:44:58.549Z,101300.01
2019-04-03T12:47:30.568Z,101290.17
2019-04-03T12:50:02.091Z,101290.84
2019-04-03T12:52:33.334Z,101285.20
2019-04-03T12:55:09.372Z,101293.34
2019-04-03T12:57:40.338Z,101287.89
2019-04-03T13:00:13.093Z,101283.36
2019-04-03T13:02:44.176Z,101286.45
2019-04-03T13:05:15.429Z,101301.92
2019-04-03T13:07:47.482Z,101313.76
2019-04-03T13:10:21.547Z,101320.56
2019-04-03T13:12:54.620Z,101316.86
2019-04-03T13:15:24.810Z,101307.87
2019-04-03T13:17:57.766Z,101311.84
2019-04-03T13:20:30.349Z,101311.98
2019-04-03T13:23:00.689Z,101307.40
2019-04-03T13:25:31.437Z,101292.97
2019-04-03T13:28:04.912Z,101287.84
2019-04-03T13:30:35.802Z,101286.16
2019-04-03T13:33:08.439Z,101294.63
2019-04-03T13:35:38.973Z,101297.11
2019-04-03T13:38:11.032Z,101294.09
2019-04-03T13:40:42.265Z,101289.13
2019-04-03T13:43:12.808Z,101297.61
2019-04-03T13:45:46.196Z,101291.25
2019-04-03T13:48:18.474Z,101301.87
2019-04-03T13:50:49.067Z,101311.09
2019-04-03T13:53:20.974Z,101316.13
2019-04-03T13:55:52.711Z,101315.85
2019-04-03T13:58:23.435Z,101312.69
2019-04-03T14:01:01.392Z,101315.10
2019-04-03T14:03:27.830Z,101308.41
2019-04-03T14:05:58.653Z,101297.45
2019-04-03T14:08:30.981Z,101301.80
2019-04-03T14:11:02.622Z,101309.94
2019-04-03T14:13:32.813Z,101312.83
2019-04-03T14:16:04.408Z,101316.55
2019-04-03T14:18:34.928Z,101316.91
2019-04-03T14:21:06.584Z,101315.91
2019-04-03T14:23:39.782Z,101311.07
2019-04-03T14:26:12.942Z,101300.91
2019-04-03T14:28:42.054Z,101309.58
2019-04-03T14:31:12.830Z,101304.42
2019-04-03T14:33:46.256Z,101311.48
2019-04-03T14:36:18.709Z,101315.94
2019-04-03T14:38:48.537Z,101307.95
2019-04-03T14:41:19.488Z,101305.52
2019-04-03T14:43:53.344Z,101307.11
2019-04-03T14:46:26.971Z,101309.40
2019-04-03T14:48:59.656Z,101313.60
2019-04-03T14:51:31.638Z,101314.61
2019-04-03T14:54:03.824Z,101323.23
2019-04-03T14:56:39.110Z,101327.95
2019-04-03T14:59:09.594Z,101324.13
2019-04-03T15:01:41.424Z,101320.99
2019-04-03T15:04:13.035Z,101311.59
2019-04-03T15:06:46.776Z,101310.97
2019-04-03T15:09:17.123Z,101304.16
2019-04-03T15:11:51.326Z,101303.61
2019-04-03T15:14:23.658Z,101302.23
2019-04-03T15:16:56.792Z,101305.58
2019-04-03T15:19:30.042Z,101305.91
2019-04-03T15:22:02.198Z,101308.77
2019-04-03T15:24:32.474Z,101300.22
2019-04-03T15:27:04.348Z,101320.14
2019-04-03T15:29:38.251Z,101322.00
2019-04-03T15:32:07.543Z,101313.16
2019-04-03T15:34:38.181Z,101313.88
2019-04-03T15:37:13.325Z,101318.16
2019-04-03T15:39:47.783Z,101318.86
2019-04-03T15:42:17.629Z,101319.11
2019-04-03T15:44:52.080Z,101320.56
2019-04-03T15:47:34.481Z,101324.58
2019-04-03T15:49:59.975Z,101312.99
2019-04-03T15:52:32.617Z,101323.05
2019-04-03T15:55:06.242Z,101324.42
2019-04-03T15:57:40.021Z,101330.53
2019-04-03T16:00:15.739Z,101326.78
2019-04-03T16:02:47.293Z,101335.11
2019-04-03T16:05:18.835Z,101331.34
2019-04-03T16:07:50.405Z,101337.52
2019-04-03T16:10:24.569Z,101343.22
2019-04-03T16:12:55.705Z,101340.74
2019-04-03T16:15:26.713Z,101357.88
2019-04-03T16:17:59.979Z,101355.48
2019-04-03T16:20:31.355Z,101361.06
2019-04-03T16:23:03.840Z,101368.44
2019-04-03T16:25:35.847Z,101371.47
2019-04-03T16:28:06.811Z,101372.17
2019-04-03T16:30:41.175Z,101372.18
2019-04-03T16:33:19.833Z,101376.69
2019-04-03T16:35:45.923Z,101373.45
2019-04-03T16:38:17.692Z,101383.26
2019-04-03T16:40:50.059Z,101387.58
2019-04-03T16:43:22.661Z,101391.89
2019-04-03T16:45:54.178Z,101386.39
2019-04-03T16:48:24.699Z,101382.25
2019-04-03T16:50:59.733Z,101395.52
2019-04-03T16:53:29.837Z,101392.58
2019-04-03T16:56:01.306Z,101392.93
2019-04-03T16:58:32.234Z,101398.45
2019-04-03T17:01:03.692Z,101395.86
2019-04-03T17:03:34.014Z,101404.66
2019-04-03T17:06:04.636Z,101407.25
2019-04-03T17:08:35.283Z,101405.68
2019-04-03T17:11:07.226Z,101407.75
2019-04-03T17:13:38.571Z,101409.13
2019-04-03T17:16:10.799Z,101413.24
2019-04-03T17:18:41.374Z,101411.66
2019-04-03T17:21:15.483Z,101413.55
2019-04-03T17:23:48.264Z,101427.31
2019-04-03T17:26:18.687Z,101416.11
2019-04-03T17:29:02.801Z,101419.38
2019-04-03T17:31:26.941Z,101429.50
2019-04-03T17:34:01.023Z,101428.23
2019-04-03T17:36:31.572Z,101431.84
2019-04-03T17:39:04.554Z,101430.59
2019-04-03T17:41:36.116Z,101432.30
2019-04-03T17:44:09.582Z,101434.66
2019-04-03T17:46:41.546Z,101430.86
2019-04-03T17:49:15.822Z,101427.09
2019-04-03T17:51:46.289Z,101430.18
2019-04-03T17:54:18.311Z,101430.33
2019-04-03T17:56:51.355Z,101422.87
2019-04-03T17:59:22.167Z,101421.49
2019-04-03T18:01:55.054Z,101422.53
2019-04-03T18:04:27.832Z,101419.67
2019-04-03T18:07:00.922Z,101415.38
2019-04-03T18:09:31.960Z,101425.89
2019-04-03T18:12:02.692Z,101420.48
2019-04-03T18:14:35.162Z,101419.02
2019-04-03T18:17:06.207Z,101413.26
2019-04-03T18:19:37.719Z,101413.53
2019-04-03T18:22:09.112Z,101413.37
2019-04-03T18:24:43.214Z,101413.14
2019-04-03T18:27:17.222Z,101413.48
2019-04-03T18:29:51.749Z,101414.78
2019-04-03T18:32:23.704Z,101418.54
2019-04-03T18:34:55.661Z,101413.67
2019-04-03T18:37:26.401Z,101413.63
2019-04-03T18:39:59.182Z,101425.92
2019-04-03T18:42:32.264Z,101420.06
2019-04-03T18:45:04.858Z,101421.17
2019-04-03T18:47:41.433Z,101426.03
2019-04-03T18:50:10.131Z,101422.59
2019-04-03T18:52:40.744Z,101422.63
2019-04-03T18:55:14.543Z,101422.34
2019-04-03T18:57:46.075Z,101414.22
2019-04-03T19:00:18.080Z,101425.22
2019-04-03T19:02:49.798Z,101414.62
2019-04-03T19:05:20.848Z,101419.11
2019-04-03T19:07:55.802Z,101416.23
2019-04-03T19:10:26.505Z,101423.45
2019-04-03T19:12:59.278Z,101419.05
2019-04-03T19:15:29.687Z,101422.84
2019-04-03T19:18:06.003Z,101422.78
2019-04-03T19:20:34.145Z,101424.42
2019-04-03T19:23:07.085Z,101420.70
2019-04-03T19:25:38.884Z,101416.66
2019-04-03T19:28:10.436Z,101417.14
2019-04-03T19:30:42.703Z,101419.20
2019-04-03T19:33:14.576Z,101408.72
2019-04-03T19:35:48.160Z,101410.67
2019-04-03T19:38:19.614Z,101410.09
2019-04-03T19:40:50.957Z,101406.48
2019-04-03T19:43:21.691Z,101402.79
2019-04-03T19:45:55.166Z,101408.41
2019-04-03T19:48:26.646Z,101410.80
2019-04-03T19:51:02.694Z,101405.11
2019-04-03T19:53:35.782Z,101407.55
2019-04-03T19:56:09.808Z,101407.15
2019-04-03T19:58:43.902Z,101409.86
2019-04-03T20:01:14.771Z,101408.84
2019-04-03T20:03:45.573Z,101408.17
2019-04-03T20:06:17.834Z,101411.73
2019-04-03T20:08:49.667Z,101416.61
2019-04-03T20:11:21.249Z,101419.00
2019-04-03T20:13:53.412Z,101420.14
2019-04-03T20:16:28.043Z,101416.80
2019-04-03T20:18:59.794Z,101414.33
2019-04-03T20:21:31.616Z,101417.63
2019-04-03T20:24:02.790Z,101414.17
2019-04-03T20:26:34.038Z,101421.59
2019-04-03T20:29:04.874Z,101425.35
2019-04-03T20:31:40.823Z,101421.13
2019-04-03T20:34:12.952Z,101421.08
2019-04-03T20:36:43.521Z,101413.55
2019-04-03T20:39:13.781Z,101408.32
2019-04-03T20:41:46.734Z,101410.98
2019-04-03T20:44:22.090Z,101412.14
2019-04-03T20:46:56.043Z,101421.20
2019-04-03T20:49:26.910Z,101426.23
2019-04-03T20:52:00.084Z,101416.98
2019-04-03T20:54:30.727Z,101416.77
2019-04-03T20:57:02.582Z,101415.60
2019-04-03T20:59:33.626Z,101417.64
2019-04-03T21:02:09.011Z,101411.74
2019-04-03T21:04:39.508Z,101406.78
2019-04-03T21:07:11.045Z,101410.88
2019-04-03T21:09:44.645Z,101409.30
2019-04-03T21:12:15.278Z,101403.73
2019-04-03T21:14:47.503Z,101403.16
2019-04-03T21:17:18.901Z,101398.59
2019-04-03T21:19:52.972Z,101398.83
2019-04-03T21:22:25.985Z,101395.36
2019-04-03T21:24:58.667Z,101400.16
2019-04-03T21:27:29.705Z,101398.39
2019-04-03T21:30:00.745Z,101399.26
2019-04-03T21:32:32.703Z,101395.96
2019-04-03T21:35:04.542Z,101398.39
2019-04-03T21:37:39.776Z,101401.50
2019-04-03T21:40:10.324Z,101394.11
2019-04-03T21:42:40.645Z,101400.75
2019-04-03T21:45:13.744Z,101397.32
2019-04-03T21:47:49.429Z,101404.23
2019-04-03T21:50:20.016Z,101399.30
2019-04-03T21:52:53.556Z,101394.82
2019-04-03T21:55:23.024Z,101397.34
2019-04-03T21:57:55.075Z,101398.39
2019-04-03T22:00:55.345Z,101395.53
2019-04-03T22:03:25.948Z,101393.97
2019-04-03T22:05:56.661Z,101389.53
2019-04-03T22:08:29.113Z,101395.02
2019-04-03T22:11:03.891Z,101390.16
2019-04-03T22:13:32.751Z,101388.98
2019-04-03T22:16:04.410Z,101390.90
2019-04-03T22:18:35.861Z,101395.17
2019-04-03T22:21:06.338Z,101394.58
2019-04-03T22:23:39.592Z,101383.59
2019-04-03T22:26:11.634Z,101392.26
2019-04-03T22:28:46.485Z,101406.61
2019-04-03T22:31:18.014Z,101394.20
2019-04-03T22:33:50.216Z,101397.53
2019-04-03T22:36:21.766Z,101392.14
2019-04-03T22:38:52.631Z,101387.08
2019-04-03T22:41:25.224Z,101385.61
2019-04-03T22:43:55.635Z,101380.02
2019-04-03T22:46:26.508Z,101389.06
2019-04-03T22:48:58.089Z,101397.14
2019-04-03T22:51:29.000Z,101396.59
2019-04-03T22:54:00.440Z,101401.72
2019-04-03T22:56:30.768Z,101395.94
2019-04-03T22:59:02.072Z,101396.03
2019-04-03T23:01:32.329Z,101393.72
2019-04-03T23:04:05.038Z,101393.15
2019-04-03T23:06:35.636Z,101389.85
2019-04-03T23:09:08.067Z,101387.77
2019-04-03T23:11:39.089Z,101389.29
2019-04-03T23:14:10.805Z,101384.81
2019-04-03T23:16:43.237Z,101384.76
2019-04-03T23:19:17.642Z,101385.17
2019-04-03T23:21:48.117Z,101381.63
2019-04-03T23:24:20.387Z,101378.88
2019-04-03T23:26:53.506Z,101379.39
2019-04-03T23:29:24.108Z,101374.86
2019-04-03T23:31:54.602Z,101369.17
2019-04-03T23:34:25.266Z,101369.61
2019-04-03T23:36:55.894Z,101371.05
2019-04-03T23:39:29.372Z,101371.40
2019-04-03T23:42:00.636Z,101362.16
2019-04-03T23:44:31.863Z,101364.92
2019-04-03T23:47:02.307Z,101368.37
2019-04-03T23:49:33.757Z,101363.67
2019-04-03T23:52:04.283Z,101367.06
2019-04-03T23:54:37.577Z,101359.70
2019-04-03T23:57:10.869Z,101364.26
2019-04-03T23:59:42.450Z,101361.08
